createdAt,value
2022-10-07T00:01:20.681Z,15.83
2022-10-07T00:05:22.800Z,13.63
2022-10-07T00:09:26.896Z,14.80
2022-10-07T00:13:31.468Z,14.27
2022-10-07T00:17:33.624Z,14.93
2022-10-07T00:21:39.023Z,16.20
2022-10-07T00:25:41.462Z,16.63
2022-10-07T00:29:48.852Z,12.03
2022-10-07T00:33:53.580Z,17.40
2022-10-07T00:37:56.163Z,13.27
2022-10-07T00:41:58.151Z,14.27
2022-10-07T00:46:31.795Z,13.80
2022-10-07T00:50:34.180Z,13.90
2022-10-07T00:54:37.465Z,16.17
2022-10-07T00:58:43.734Z,16.60
2022-10-07T01:02:50.963Z,12.40
2022-10-07T01:06:53.456Z,14.47
2022-10-07T01:11:18.283Z,20.37
2022-10-07T01:15:29.644Z,18.90
2022-10-07T01:20:01.594Z,17.43
2022-10-07T01:24:13.431Z,17.07
2022-10-07T01:28:31.132Z,18.40
2022-10-07T01:32:45.408Z,17.00
2022-10-07T01:36:52.651Z,19.07
2022-10-07T01:41:12.986Z,15.53
2022-10-07T01:45:22.605Z,16.17
2022-10-07T01:49:27.263Z,15.03
2022-10-07T01:53:33.218Z,16.83
2022-10-07T01:58:33.410Z,15.90
2022-10-07T02:02:55.124Z,17.53
2022-10-07T02:07:09.786Z,24.47
2022-10-07T02:11:22.015Z,20.43
2022-10-07T02:15:48.849Z,22.73
2022-10-07T02:19:57.360Z,24.17
2022-10-07T02:24:26.406Z,24.63
2022-10-07T02:28:33.696Z,21.60
2022-10-07T02:33:03.397Z,21.67
2022-10-07T02:37:19.923Z,23.80
2022-10-07T02:41:57.174Z,31.17
2022-10-07T02:46:08.667Z,26.53
2022-10-07T02:50:15.304Z,35.33
2022-10-07T02:54:25.592Z,31.03
2022-10-07T02:58:28.086Z,27.10
2022-10-07T03:02:38.878Z,28.23
2022-10-07T03:06:43.246Z,26.77
2022-10-07T03:10:45.369Z,48.23
2022-10-07T03:14:52.615Z,33.20
2022-10-07T03:18:56.720Z,56.70
2022-10-07T03:23:07.101Z,43.27
2022-10-07T03:27:09.910Z,44.70
2022-10-07T03:31:16.833Z,66.90
2022-10-07T03:35:25.633Z,72.87
2022-10-07T03:39:32.650Z,367.87
2022-10-07T03:43:38.055Z,160.97
2022-10-07T03:47:44.112Z,494.33
2022-10-07T03:51:48.272Z,407.47
2022-10-07T03:55:51.045Z,517.87
2022-10-07T03:59:56.051Z,319.70
2022-10-07T04:04:02.173Z,353.97
2022-10-07T04:08:13.876Z,450.00
2022-10-07T04:12:19.561Z,461.07
2022-10-07T04:16:24.919Z,422.53
2022-10-07T04:20:30.296Z,288.03
2022-10-07T04:24:32.927Z,397.87
2022-10-07T04:28:39.664Z,458.27
2022-10-07T04:32:46.994Z,324.77
2022-10-07T04:36:50.479Z,453.40
2022-10-07T04:40:53.625Z,492.87
2022-10-07T04:44:57.765Z,181.97
2022-10-07T04:49:00.319Z,265.03
2022-10-07T04:53:04.711Z,352.27
2022-10-07T04:57:10.397Z,370.87
2022-10-07T05:01:13.760Z,322.30
2022-10-07T05:05:20.129Z,272.23
2022-10-07T05:09:22.909Z,408.47
2022-10-07T05:13:28.475Z,549.30
2022-10-07T05:17:31.181Z,326.97
2022-10-07T05:21:35.533Z,318.33
2022-10-07T05:25:39.512Z,214.00
2022-10-07T05:29:42.466Z,301.53
2022-10-07T05:33:46.749Z,455.23
2022-10-07T05:37:54.031Z,85.03
2022-10-07T05:41:58.570Z,398.40
2022-10-07T05:46:11.128Z,182.90
2022-10-07T05:54:41.665Z,370.80
2022-10-07T05:59:01.450Z,261.33
2022-10-07T06:03:05.957Z,481.40
2022-10-07T06:07:11.419Z,482.40
2022-10-07T06:11:35.926Z,439.77
2022-10-07T06:15:38.979Z,198.03
2022-10-07T06:19:49.022Z,322.87
2022-10-07T06:23:55.210Z,286.00
2022-10-07T06:28:02.508Z,282.67
2022-10-07T06:32:07.421Z,473.80
2022-10-07T06:36:12.980Z,442.53
2022-10-07T06:40:18.722Z,358.40
2022-10-07T06:44:21.033Z,395.53
2022-10-07T06:48:31.139Z,213.17
2022-10-07T06:52:33.725Z,143.70
2022-10-07T06:56:37.099Z,260.03
2022-10-07T07:00:39.837Z,316.53
2022-10-07T07:04:45.754Z,225.63
2022-10-07T07:08:50.405Z,135.50
2022-10-07T07:12:58.998Z,219.50
2022-10-07T07:17:03.532Z,95.63
2022-10-07T07:21:08.105Z,53.20
2022-10-07T07:25:11.941Z,52.30
2022-10-07T07:29:17.840Z,53.43
2022-10-07T07:33:25.613Z,56.83
2022-10-07T07:37:30.331Z,52.60
2022-10-07T07:41:37.051Z,50.10
2022-10-07T07:45:41.118Z,47.13
2022-10-07T07:49:44.554Z,53.50
2022-10-07T07:53:56.374Z,43.30
2022-10-07T07:57:59.777Z,42.67
2022-10-07T08:02:02.708Z,43.87
2022-10-07T08:06:08.618Z,46.60
2022-10-07T08:10:10.799Z,43.57
2022-10-07T08:14:17.394Z,31.10
2022-10-07T08:18:24.834Z,36.17
2022-10-07T08:22:27.292Z,34.20
2022-10-07T08:26:32.595Z,37.67
2022-10-07T08:30:37.163Z,32.00
2022-10-07T08:34:40.106Z,27.17
2022-10-07T08:38:42.826Z,34.70
2022-10-07T08:42:48.393Z,34.60
2022-10-07T08:46:55.580Z,28.43
2022-10-07T08:51:28.126Z,32.83
2022-10-07T08:55:41.239Z,27.97
2022-10-07T08:59:50.632Z,28.53
2022-10-07T09:03:52.954Z,35.43
2022-10-07T09:08:03.179Z,34.07
2022-10-07T09:12:13.715Z,28.63
2022-10-07T09:16:24.588Z,27.47
2022-10-07T09:20:32.599Z,26.77
2022-10-07T09:24:35.346Z,32.83
2022-10-07T09:28:38.657Z,29.73
2022-10-07T09:32:44.489Z,26.77
2022-10-07T09:37:17.137Z,26.83
2022-10-07T09:41:31.443Z,28.83
2022-10-07T09:45:35.638Z,23.60
2022-10-07T09:49:43.716Z,32.50
2022-10-07T09:54:03.571Z,30.30
2022-10-07T09:58:18.660Z,27.17
2022-10-07T10:02:26.738Z,26.67
2022-10-07T10:06:29.017Z,26.87
2022-10-07T10:10:36.152Z,24.27
2022-10-07T10:14:47.605Z,21.43
2022-10-07T10:19:04.496Z,24.43
2022-10-07T10:23:31.046Z,24.23
2022-10-07T10:27:47.627Z,20.83
2022-10-07T10:31:58.801Z,22.73
2022-10-07T10:36:18.300Z,23.47
2022-10-07T10:40:47.113Z,20.73
2022-10-07T10:45:29.734Z,19.30
2022-10-07T10:49:44.673Z,17.67
2022-10-07T10:53:54.106Z,16.53
2022-10-07T10:58:22.006Z,17.20
2022-10-07T11:02:37.295Z,14.43
2022-10-07T11:06:43.797Z,15.03
2022-10-07T11:11:02.770Z,15.53
2022-10-07T11:15:17.582Z,15.47
2022-10-07T11:19:41.200Z,16.67
2022-10-07T11:23:50.560Z,18.20
2022-10-07T11:28:05.439Z,15.03
2022-10-07T11:37:17.436Z,16.73
2022-10-07T11:41:29.809Z,16.00
2022-10-07T11:45:48.846Z,17.63
2022-10-07T11:50:15.528Z,17.53
2022-10-07T11:54:20.737Z,16.93
2022-10-07T11:58:33.096Z,13.80
2022-10-07T12:02:39.791Z,14.00
2022-10-07T12:07:27.605Z,16.27
2022-10-07T12:11:36.942Z,12.40
2022-10-07T12:15:44.086Z,13.53
2022-10-07T12:20:31.536Z,11.97
2022-10-07T12:24:36.847Z,14.13
2022-10-07T12:28:43.924Z,13.63
2022-10-07T12:32:50.528Z,11.30
2022-10-07T12:36:53.712Z,11.77
2022-10-07T12:41:11.468Z,13.37
2022-10-07T12:45:14.991Z,11.90
2022-10-07T12:49:37.293Z,10.40
2022-10-07T12:53:45.131Z,11.93
2022-10-07T12:57:54.712Z,10.40
2022-10-07T13:02:29.034Z,10.63
2022-10-07T13:07:20.596Z,12.53
2022-10-07T13:11:44.278Z,9.97
2022-10-07T13:16:27.784Z,10.43
2022-10-07T13:20:46.639Z,12.47
2022-10-07T13:24:56.186Z,9.23
2022-10-07T13:29:00.503Z,8.90
2022-10-07T13:33:23.744Z,9.43
2022-10-07T13:37:32.951Z,9.07
2022-10-07T13:41:38.582Z,6.77
2022-10-07T13:45:45.721Z,5.70
2022-10-07T13:49:55.794Z,8.17
2022-10-07T13:54:01.394Z,6.03
2022-10-07T13:58:07.457Z,5.70
2022-10-07T14:02:19.477Z,6.13
2022-10-07T14:06:49.021Z,6.43
2022-10-07T14:11:07.465Z,7.57
2022-10-07T14:15:24.727Z,8.13
2022-10-07T14:19:33.227Z,5.43
2022-10-07T14:23:38.233Z,8.73
2022-10-07T14:28:05.226Z,7.63
2022-10-07T14:32:38.079Z,6.50
2022-10-07T14:37:01.846Z,6.80
2022-10-07T14:41:04.830Z,6.80
2022-10-07T14:45:10.397Z,6.00
2022-10-07T14:49:13.081Z,10.03
2022-10-07T14:53:18.391Z,10.90
2022-10-07T14:57:21.165Z,7.47
2022-10-07T15:01:24.873Z,10.10
2022-10-07T15:05:27.172Z,8.97
2022-10-07T15:09:30.012Z,8.07
2022-10-07T15:13:33.476Z,9.90
2022-10-07T15:17:35.689Z,9.40
2022-10-07T15:21:38.211Z,7.50
2022-10-07T15:25:43.569Z,9.77
2022-10-07T15:29:46.806Z,8.20
2022-10-07T15:33:49.211Z,7.87
2022-10-07T15:37:51.743Z,7.57
2022-10-07T15:41:53.934Z,7.67
2022-10-07T15:45:59.224Z,8.10
2022-10-07T15:50:02.621Z,10.53
2022-10-07T15:54:07.736Z,11.43
2022-10-07T15:58:09.790Z,6.93
2022-10-07T16:02:18.387Z,9.47
2022-10-07T16:06:25.147Z,7.60
2022-10-07T16:10:27.575Z,7.10
2022-10-07T16:14:29.920Z,10.27
2022-10-07T16:18:37.674Z,8.70
2022-10-07T16:22:41.058Z,10.83
2022-10-07T16:26:45.599Z,8.33
2022-10-07T16:30:51.416Z,8.03
2022-10-07T16:34:56.068Z,8.73
2022-10-07T16:39:00.471Z,8.80
2022-10-07T16:43:03.415Z,10.70
2022-10-07T16:47:06.957Z,8.23
2022-10-07T16:51:13.448Z,10.63
2022-10-07T16:55:18.177Z,8.40
2022-10-07T16:59:24.086Z,10.43
2022-10-07T17:03:26.552Z,7.23
2022-10-07T17:07:28.554Z,10.03
2022-10-07T17:11:36.678Z,12.87
2022-10-07T17:15:42.158Z,10.03
2022-10-07T17:19:44.577Z,10.47
2022-10-07T17:23:47.519Z,10.07
2022-10-07T17:27:53.622Z,9.50
2022-10-07T17:31:56.625Z,9.63
2022-10-07T17:36:07.384Z,10.97
2022-10-07T17:40:10.331Z,10.20
2022-10-07T17:44:13.934Z,12.07
2022-10-07T17:48:19.615Z,11.50
2022-10-07T17:52:26.545Z,10.50
2022-10-07T17:56:32.102Z,12.80
2022-10-07T18:00:35.611Z,9.83
2022-10-07T18:04:37.808Z,12.83
2022-10-07T18:08:43.307Z,10.50
2022-10-07T18:13:05.648Z,10.33
2022-10-07T18:17:11.203Z,10.13
2022-10-07T18:21:14.425Z,8.97
2022-10-07T18:25:18.094Z,10.30
2022-10-07T18:29:20.867Z,10.53
2022-10-07T18:33:23.178Z,7.77
2022-10-07T18:37:26.631Z,6.97
2022-10-07T18:41:30.593Z,9.33
2022-10-07T18:45:32.656Z,13.03
2022-10-07T18:49:35.445Z,7.17
2022-10-07T18:53:39.433Z,7.67
2022-10-07T18:57:41.570Z,8.97
2022-10-07T19:01:49.829Z,8.63
2022-10-07T19:05:53.862Z,7.83
2022-10-07T19:09:56.106Z,8.20
2022-10-07T19:13:59.719Z,6.70
2022-10-07T19:18:02.841Z,6.50
2022-10-07T19:22:04.963Z,7.87
2022-10-07T19:26:08.882Z,7.20
2022-10-07T19:30:11.360Z,7.93
2022-10-07T19:34:18.099Z,7.77
2022-10-07T19:38:20.498Z,7.40
2022-10-07T19:42:24.328Z,8.17
2022-10-07T19:46:31.325Z,10.90
2022-10-07T19:50:34.799Z,8.07
2022-10-07T19:54:40.244Z,10.17
2022-10-07T19:58:48.081Z,7.97
2022-10-07T20:02:50.442Z,7.93
2022-10-07T20:06:53.711Z,7.70
2022-10-07T20:10:59.304Z,9.50
2022-10-07T20:15:01.651Z,8.47
2022-10-07T20:19:06.644Z,8.90
2022-10-07T20:23:09.663Z,11.70
2022-10-07T20:27:12.393Z,9.67
2022-10-07T20:31:18.689Z,13.77
2022-10-07T20:35:23.603Z,10.93
2022-10-07T20:39:44.239Z,11.37
2022-10-07T20:43:52.026Z,10.97
2022-10-07T20:47:56.001Z,13.23
2022-10-07T20:52:02.539Z,16.53
2022-10-07T20:56:05.845Z,14.73
2022-10-07T21:00:16.290Z,12.03
2022-10-07T21:04:21.564Z,12.17
2022-10-07T21:08:26.416Z,11.23
2022-10-07T21:12:30.709Z,11.43
2022-10-07T21:16:35.453Z,13.07
2022-10-07T21:20:38.059Z,10.97
2022-10-07T21:24:41.409Z,10.73
2022-10-07T21:28:43.950Z,14.70
2022-10-07T21:32:46.271Z,10.80
2022-10-07T21:36:53.589Z,13.90
2022-10-07T21:40:56.555Z,11.37
2022-10-07T21:44:58.714Z,11.17
2022-10-07T21:49:02.234Z,13.87
2022-10-07T21:53:07.130Z,12.30
2022-10-07T21:57:11.596Z,15.03
2022-10-07T22:01:19.297Z,14.60
2022-10-07T22:05:24.824Z,14.27
2022-10-07T22:09:31.309Z,19.07
2022-10-07T22:13:37.241Z,16.77
2022-10-07T22:17:44.841Z,21.03
2022-10-07T22:21:50.288Z,23.70
2022-10-07T22:25:55.197Z,20.83
2022-10-07T22:29:59.109Z,17.50
2022-10-07T22:34:07.125Z,9.30
2022-10-07T22:38:11.552Z,11.50
2022-10-07T22:42:16.781Z,12.20
2022-10-07T22:46:24.836Z,10.67
2022-10-07T22:50:30.181Z,9.37
2022-10-07T22:54:33.516Z,10.40
2022-10-07T22:58:43.059Z,9.07
2022-10-07T23:02:50.201Z,10.87
2022-10-07T23:06:54.284Z,22.40
2022-10-07T23:11:02.743Z,14.07
2022-10-07T23:15:09.752Z,20.70
2022-10-07T23:28:12.312Z,28.13
2022-10-07T23:32:18.689Z,11.63
2022-10-07T23:36:34.021Z,19.70
2022-10-07T23:40:37.804Z,14.47
2022-10-07T23:44:41.093Z,12.20
2022-10-07T23:48:46.982Z,11.10
2022-10-07T23:52:52.145Z,10.17
2022-10-07T23:56:54.723Z,9.07
